ADDS METAR Data INFO
IDs: Format: Raw Decoded Include TAF

Data at: 1156 UTC 25 Jun 2018

KLRD 251056Z 13009KT 10SM OVC017 26/22 A2989 RMK AO2 SLP118 T02560222
KLRD 250956Z AUTO 13009KT 10SM OVC015 26/22 A2987 RMK AO2 SLP113 T02560222
KLRD 250915Z AUTO 13010KT 10SM BKN015 26/22 A2987 RMK AO2
KLRD 250856Z AUTO 13010KT 10SM FEW015 26/22 A2987 RMK AO2 SLP110 T02560222 58004
KLRD 250817Z AUTO 12010KT 10SM SCT019 26/23 A2987 RMK AO2
KLRD 250756Z AUTO 13010KT 10SM BKN021 26/23 A2987 RMK AO2 SLP111 T02610228
KLRD 250747Z AUTO 13008KT 10SM BKN021 27/23 A2987 RMK AO2
KLRD 250656Z AUTO 13007KT 10SM FEW025 27/22 A2988 RMK AO2 SLP114 T02720222 TSNO
KLRD 250556Z AUTO 14012KT 10SM FEW025 28/22 A2988 RMK AO2 SLP114 T02830222 10361 20283 51018
KLRD 250456Z AUTO 14013KT 10SM CLR 29/23 A2987 RMK AO2 PK WND 15028/0400 SLP113 T02890228 403890256
KLRD 250356Z AUTO 14023G26KT 10SM CLR 30/23 A2985 RMK AO2 PK WND 14027/0356 SLP104 T03000228
KLRD 250256Z AUTO 13017G23KT 10SM BKN042 31/22 A2982 RMK AO2 SLP096 T03110217 53022
KLRD 250156Z AUTO 13015KT 10SM FEW048 33/22 A2980 RMK AO2 SLP087 T03280222
KLRD 250056Z AUTO 13018G24KT 10SM FEW065 35/21 A2977 RMK AO2 SLP078 T03500211
KLRD 242356Z 14014G22KT 10SM FEW065 36/21 A2975 RMK AO2 SLP073 T03610206 10389 20361 56010
KLRD 242256Z 15019G23KT 10SM CLR 37/21 A2976 RMK AO2 SLP073 T03720206
KLRD 242156Z 14020G26KT 10SM CLR 38/21 A2977 RMK AO2 PK WND 15027/2139 SLP078 T03780206
KLRD 242056Z 14014G24KT 10SM CLR 38/21 A2979 RMK AO2 PK WND 16026/2038 SLP082 T03830206 58004
KLRD 241956Z 15022G28KT 10SM CLR 38/20 A2979 RMK AO2 PK WND 15028/1956 SLP084 T03780200
KLRD 241856Z 15017G29KT 10SM CLR 37/20 A2980 RMK AO2 PK WND 17029/1850 SLP088 T03720200
KLRD 241756Z 16017G22KT 10SM CLR 36/20 A2980 RMK AO2 SLP087 T03610200 10361 20256 56009
KLRD 241656Z 16013G20KT 10SM CLR 34/21 A2981 RMK AO2 SLP090 T03440211
KLRD 241556Z 16014KT 10SM CLR 32/21 A2980 RMK AO2 SLP088 T03220206
KLRD 241456Z 16011KT 10SM CLR 31/22 A2983 RMK AO2 SLP097 T03110217 50004
KLRD 241356Z 16011KT 10SM CLR 28/23 A2983 RMK AO2 SLP100 T02830228
KLRD 241256Z 14010KT 10SM CLR 27/23 A2982 RMK AO2 SLP095 T02670228
KLRD 241156Z AUTO 15011KT 10SM CLR 26/23 A2982 RMK AO2 SLP093 T02560228 10283 20256 53008
KLRD 241056Z AUTO 14013KT 10SM CLR 26/23 A2980 RMK AO2 SLP089 T02610228
KLRD 240956Z AUTO 14016G20KT 10SM CLR 26/23 A2979 RMK AO2 SLP084 T02610228
KLRD 240856Z AUTO 15014G21KT 10SM CLR 27/23 A2979 RMK AO2 SLP084 T02670228 58005
KLRD 240756Z AUTO 14017G25KT 10SM CLR 27/23 A2979 RMK AO2 SLP085 T02720228
KLRD 240656Z AUTO 15016KT 10SM CLR 27/23 A2981 RMK AO2 SLP090 T02720228
KLRD 240556Z AUTO 14013G20KT 10SM CLR 28/22 A2981 RMK AO2 SLP090 T02830222 10372 20283 51021
KLRD 240456Z AUTO 15018G24KT 10SM CLR 29/22 A2980 RMK AO2 PK WND 13028/0429 SLP089 T02940222 403940250
KLRD 240356Z AUTO 14013KT 10SM CLR 31/23 A2976 RMK AO2 PK WND 14026/0319 SLP076 T03060233
KLRD 240256Z AUTO 13017G22KT 10SM CLR 32/24 A2974 RMK AO2 SLP069 T03170244 53021
KLRD 240156Z AUTO 14016KT 10SM CLR 34/23 A2971 RMK AO2 SLP058 T03390228
KLRD 240056Z AUTO 14019KT 10SM CLR 36/22 A2969 RMK AO2 SLP049 T03610217